createdAt,value
2023-05-07T00:00:02.415Z,13.51
2023-05-07T00:01:04.388Z,13.49
2023-05-07T00:02:06.253Z,13.49
2023-05-07T00:03:08.430Z,13.50
2023-05-07T00:04:10.858Z,13.52
2023-05-07T00:05:13.775Z,13.56
2023-05-07T00:06:16.211Z,13.57
2023-05-07T00:07:18.073Z,13.58
2023-05-07T00:08:20.632Z,13.55
2023-05-07T00:09:22.691Z,13.56
2023-05-07T00:10:24.600Z,13.53
2023-05-07T00:11:27.167Z,13.44
2023-05-07T00:12:29.005Z,13.46
2023-05-07T00:13:36.711Z,13.49
2023-05-07T00:14:38.616Z,13.52
2023-05-07T00:15:40.555Z,13.54
2023-05-07T00:16:42.613Z,13.55
2023-05-07T00:17:44.517Z,13.52
2023-05-07T00:18:46.521Z,13.52
2023-05-07T00:19:49.108Z,13.53
2023-05-07T00:20:51.446Z,13.56
2023-05-07T00:21:55.213Z,13.57
2023-05-07T00:22:57.061Z,13.57
2023-05-07T00:23:58.964Z,13.58
2023-05-07T00:25:01.596Z,13.60
2023-05-07T00:26:04.041Z,13.60
2023-05-07T00:27:06.680Z,13.62
2023-05-07T00:28:08.565Z,13.62
2023-05-07T00:29:10.408Z,13.62
2023-05-07T00:30:13.085Z,13.59
2023-05-07T00:31:15.017Z,13.56
2023-05-07T00:32:17.072Z,13.56
2023-05-07T00:33:18.945Z,13.56
2023-05-07T00:34:20.868Z,13.59
2023-05-07T00:35:22.716Z,13.60
2023-05-07T00:36:24.568Z,13.60
2023-05-07T00:37:26.504Z,13.62
2023-05-07T00:38:28.341Z,13.58
2023-05-07T00:39:30.188Z,13.55
2023-05-07T00:40:32.103Z,13.53
2023-05-07T00:41:33.951Z,13.53
2023-05-07T00:42:35.893Z,13.49
2023-05-07T00:43:37.775Z,13.49
2023-05-07T00:44:39.633Z,13.50
2023-05-07T00:45:41.486Z,13.54
2023-05-07T00:46:43.409Z,13.56
2023-05-07T00:47:45.419Z,13.56
2023-05-07T00:48:47.416Z,13.58
2023-05-07T00:49:49.313Z,13.60
2023-05-07T00:50:51.210Z,13.60
2023-05-07T00:51:53.109Z,13.63
2023-05-07T00:52:55.162Z,13.64
2023-05-07T00:53:57.051Z,13.66
2023-05-07T00:54:58.926Z,13.65
2023-05-07T00:56:02.190Z,13.67
2023-05-07T00:57:05.257Z,13.67
2023-05-07T00:58:07.696Z,13.67
2023-05-07T00:59:09.782Z,13.69
2023-05-07T01:00:13.200Z,13.69
2023-05-07T01:01:17.909Z,13.72
2023-05-07T01:02:19.907Z,13.71
2023-05-07T01:03:22.398Z,13.71
2023-05-07T01:04:24.802Z,13.69
2023-05-07T01:05:28.875Z,13.70
2023-05-07T01:06:33.252Z,13.67
2023-05-07T01:07:36.150Z,13.64
2023-05-07T01:08:38.082Z,13.61
2023-05-07T01:09:40.061Z,13.56
2023-05-07T01:10:44.274Z,13.57
2023-05-07T01:11:46.294Z,13.57
2023-05-07T01:12:49.514Z,13.57
2023-05-07T01:13:52.061Z,13.58
2023-05-07T01:14:54.330Z,13.57
2023-05-07T01:15:56.164Z,13.57
2023-05-07T01:16:58.163Z,13.55
2023-05-07T01:18:00.184Z,13.51
2023-05-07T01:19:02.448Z,13.49
2023-05-07T01:20:06.457Z,13.46
2023-05-07T01:21:10.268Z,13.34
2023-05-07T01:22:13.201Z,13.29
2023-05-07T01:23:15.459Z,13.30
2023-05-07T01:24:18.011Z,13.30
2023-05-07T01:25:19.936Z,13.29
2023-05-07T01:26:21.849Z,13.30
2023-05-07T01:27:23.702Z,13.30
2023-05-07T01:28:25.550Z,13.28
2023-05-07T01:29:27.615Z,13.29
2023-05-07T01:30:29.953Z,13.30
2023-05-07T01:31:31.921Z,13.31
2023-05-07T01:32:37.229Z,13.34
2023-05-07T01:33:39.795Z,13.33
2023-05-07T01:34:41.926Z,13.33
2023-05-07T01:35:46.828Z,13.32
2023-05-07T01:36:50.286Z,13.31
2023-05-07T01:37:52.546Z,13.29
2023-05-07T01:38:54.613Z,13.24
2023-05-07T01:39:56.869Z,13.25
2023-05-07T01:40:59.131Z,13.21
2023-05-07T01:42:01.253Z,13.23
2023-05-07T01:43:03.714Z,13.27
2023-05-07T01:44:07.026Z,13.31
2023-05-07T01:45:09.243Z,13.35
2023-05-07T01:46:12.141Z,13.37
2023-05-07T01:47:15.008Z,13.35
2023-05-07T01:48:16.904Z,13.33
2023-05-07T01:49:18.805Z,13.29
2023-05-07T01:50:20.806Z,13.30
2023-05-07T01:51:23.596Z,13.33
2023-05-07T01:52:26.364Z,13.33
2023-05-07T01:53:29.688Z,13.33
2023-05-07T01:54:32.103Z,13.32
2023-05-07T01:55:34.021Z,13.33
2023-05-07T01:56:36.475Z,13.32
2023-05-07T01:57:38.304Z,13.33
2023-05-07T01:58:40.212Z,13.31
2023-05-07T01:59:42.005Z,13.30
2023-05-07T02:00:43.893Z,13.30
2023-05-07T02:01:45.822Z,13.27
2023-05-07T02:02:47.827Z,13.21
2023-05-07T02:03:49.809Z,13.18
2023-05-07T02:04:51.762Z,13.13
2023-05-07T02:05:54.108Z,13.13
2023-05-07T02:06:57.018Z,13.16
2023-05-07T02:07:58.866Z,13.20
2023-05-07T02:09:00.649Z,13.23
2023-05-07T02:10:02.643Z,13.23
2023-05-07T02:11:05.030Z,13.25
2023-05-07T02:12:06.853Z,13.26
2023-05-07T02:13:08.816Z,13.30
2023-05-07T02:14:10.666Z,13.30
2023-05-07T02:15:12.626Z,13.28
2023-05-07T02:16:15.851Z,13.27
2023-05-07T02:17:17.789Z,13.27
2023-05-07T02:18:19.652Z,13.29
2023-05-07T02:19:22.429Z,13.31
2023-05-07T02:20:24.239Z,13.33
2023-05-07T02:21:27.303Z,13.33
2023-05-07T02:22:30.266Z,13.33
2023-05-07T02:23:32.184Z,13.31
2023-05-07T02:24:33.977Z,13.33
2023-05-07T02:25:35.887Z,13.32
2023-05-07T02:26:37.815Z,13.31
2023-05-07T02:27:39.705Z,13.29
2023-05-07T02:28:41.540Z,13.29
2023-05-07T02:29:43.371Z,13.26
2023-05-07T02:30:45.299Z,13.23
2023-05-07T02:31:47.254Z,13.23
2023-05-07T02:32:49.211Z,13.24
2023-05-07T02:33:51.093Z,13.27
2023-05-07T02:34:53.529Z,13.26
2023-05-07T02:35:55.402Z,13.23
2023-05-07T02:36:57.376Z,13.24
2023-05-07T02:37:59.219Z,13.27
2023-05-07T02:39:01.481Z,13.30
2023-05-07T02:40:04.879Z,13.32
2023-05-07T02:41:06.783Z,13.34
2023-05-07T02:42:08.679Z,13.34
2023-05-07T02:43:10.508Z,13.33
2023-05-07T02:44:12.410Z,13.32
2023-05-07T02:45:14.275Z,13.31
2023-05-07T02:46:17.092Z,13.26
2023-05-07T02:47:18.975Z,13.28
2023-05-07T02:48:21.060Z,13.21
2023-05-07T02:49:22.956Z,13.19
2023-05-07T02:50:24.856Z,13.18
2023-05-07T02:51:27.438Z,13.19
2023-05-07T02:52:29.237Z,13.23
2023-05-07T02:53:31.252Z,13.24
2023-05-07T02:54:33.193Z,13.26
2023-05-07T02:55:35.112Z,13.28
2023-05-07T02:56:37.021Z,13.29
2023-05-07T02:57:38.924Z,13.31
2023-05-07T02:58:40.984Z,13.28
2023-05-07T02:59:43.233Z,13.27
2023-05-07T03:00:45.130Z,13.30
2023-05-07T03:01:47.103Z,13.28
2023-05-07T03:02:49.098Z,13.30
2023-05-07T03:03:51.140Z,13.33
2023-05-07T03:04:53.128Z,13.34
2023-05-07T03:05:55.029Z,13.34
2023-05-07T03:06:56.889Z,13.35
2023-05-07T03:07:58.637Z,13.37
2023-05-07T03:09:00.532Z,13.39
2023-05-07T03:10:02.464Z,13.40
2023-05-07T03:11:04.383Z,13.42
2023-05-07T03:12:06.293Z,13.44
2023-05-07T03:13:08.215Z,13.45
2023-05-07T03:14:10.168Z,13.44
2023-05-07T03:15:13.947Z,13.40
2023-05-07T03:16:15.842Z,13.38
2023-05-07T03:17:17.736Z,13.36
2023-05-07T03:18:19.758Z,13.30
2023-05-07T03:19:22.006Z,13.31
2023-05-07T03:20:23.889Z,13.32
2023-05-07T03:21:27.746Z,13.35
2023-05-07T03:22:29.610Z,13.36
2023-05-07T03:23:31.412Z,13.39
2023-05-07T03:24:33.378Z,13.34
2023-05-07T03:25:35.233Z,13.34
2023-05-07T03:26:37.112Z,13.38
2023-05-07T03:27:39.558Z,13.39
2023-05-07T03:28:41.412Z,13.40
2023-05-07T03:29:43.342Z,13.42
2023-05-07T03:30:45.194Z,13.41
2023-05-07T03:31:47.114Z,13.42
2023-05-07T03:32:49.119Z,13.32
2023-05-07T03:33:57.401Z,13.27
2023-05-07T03:34:59.298Z,13.26
2023-05-07T03:36:01.312Z,13.29
2023-05-07T03:37:03.227Z,13.32
2023-05-07T03:38:05.119Z,13.34
2023-05-07T03:39:06.918Z,13.35
2023-05-07T03:40:09.826Z,13.32
2023-05-07T03:41:11.953Z,13.30
2023-05-07T03:42:13.868Z,13.30
2023-05-07T03:43:15.981Z,13.33
2023-05-07T03:44:17.824Z,13.36
2023-05-07T03:45:19.843Z,13.37
2023-05-07T03:46:21.764Z,13.35
2023-05-07T03:47:23.662Z,13.35
2023-05-07T03:48:26.063Z,13.36
2023-05-07T03:49:27.880Z,13.36
2023-05-07T03:50:29.765Z,13.32
2023-05-07T03:51:31.864Z,13.35
2023-05-07T03:52:33.705Z,13.36
2023-05-07T03:53:35.599Z,13.36
2023-05-07T03:54:38.052Z,13.36
2023-05-07T03:55:40.059Z,13.38
2023-05-07T03:56:41.931Z,13.36
2023-05-07T03:57:43.704Z,13.36
2023-05-07T03:58:45.713Z,13.34
2023-05-07T03:59:47.577Z,13.35
2023-05-07T04:00:50.221Z,13.35
2023-05-07T04:01:52.281Z,13.37
2023-05-07T04:02:54.245Z,13.35
2023-05-07T04:03:56.229Z,13.34
2023-05-07T04:04:58.131Z,13.35
2023-05-07T04:06:00.037Z,13.35
2023-05-07T04:07:01.924Z,13.34
2023-05-07T04:08:03.817Z,13.34
2023-05-07T04:09:05.744Z,13.31
2023-05-07T04:10:07.976Z,13.30
2023-05-07T04:11:10.129Z,13.32
2023-05-07T04:12:11.964Z,13.34
2023-05-07T04:13:14.458Z,13.38
2023-05-07T04:14:16.372Z,13.37
2023-05-07T04:15:18.250Z,13.36
2023-05-07T04:16:20.166Z,13.35
2023-05-07T04:17:22.201Z,13.37
2023-05-07T04:18:24.053Z,13.39
2023-05-07T04:19:25.958Z,13.38
2023-05-07T04:20:27.832Z,13.40
2023-05-07T04:21:29.851Z,13.41
2023-05-07T04:22:31.688Z,13.42
2023-05-07T04:23:33.601Z,13.42
2023-05-07T04:24:35.657Z,13.42
2023-05-07T04:25:37.534Z,13.37
2023-05-07T04:26:39.476Z,13.39
2023-05-07T04:27:41.352Z,13.38
2023-05-07T04:28:43.750Z,13.34
2023-05-07T04:29:48.436Z,13.29
2023-05-07T04:30:50.300Z,13.25
2023-05-07T04:31:52.347Z,13.28
2023-05-07T04:32:54.374Z,13.32
2023-05-07T04:33:56.559Z,13.36
2023-05-07T04:34:58.410Z,13.36
2023-05-07T04:36:04.187Z,13.38
2023-05-07T04:37:06.072Z,13.38
2023-05-07T04:38:07.918Z,13.40
2023-05-07T04:39:10.125Z,13.42
2023-05-07T04:40:12.323Z,13.43
2023-05-07T04:41:14.638Z,13.48
2023-05-07T04:42:17.019Z,13.49
2023-05-07T04:43:18.859Z,13.49
2023-05-07T04:44:20.674Z,13.48
2023-05-07T04:45:22.579Z,13.47
2023-05-07T04:46:25.742Z,13.47
2023-05-07T04:47:27.879Z,13.50
2023-05-07T04:48:30.245Z,13.51
2023-05-07T04:49:32.139Z,13.50
2023-05-07T04:50:34.152Z,13.48
2023-05-07T04:51:36.060Z,13.48
2023-05-07T04:52:38.046Z,13.43
2023-05-07T04:53:39.860Z,13.38
2023-05-07T04:54:41.730Z,13.43
2023-05-07T04:55:44.186Z,13.48
2023-05-07T04:56:46.178Z,13.52
2023-05-07T04:57:48.647Z,13.55
2023-05-07T04:58:50.516Z,13.58
2023-05-07T04:59:52.321Z,13.60
2023-05-07T05:00:54.190Z,13.65
2023-05-07T05:01:57.198Z,13.68
2023-05-07T05:02:59.335Z,13.69
2023-05-07T05:04:01.975Z,13.69
2023-05-07T05:05:03.846Z,13.67
2023-05-07T05:06:05.911Z,13.65
2023-05-07T05:07:07.867Z,13.63
2023-05-07T05:08:09.959Z,13.65
2023-05-07T05:09:12.337Z,13.66
2023-05-07T05:10:14.559Z,13.66
2023-05-07T05:11:16.420Z,13.66
2023-05-07T05:12:18.327Z,13.63
2023-05-07T05:13:20.250Z,13.62
2023-05-07T05:14:22.308Z,13.65
2023-05-07T05:15:24.332Z,13.64
2023-05-07T05:16:26.192Z,13.65
2023-05-07T05:17:28.122Z,13.64
2023-05-07T05:18:30.028Z,13.62
2023-05-07T05:19:31.944Z,13.60
2023-05-07T05:20:33.778Z,13.65
2023-05-07T05:21:35.708Z,13.69
2023-05-07T05:22:37.601Z,13.68
2023-05-07T05:23:40.247Z,13.73
2023-05-07T05:24:42.206Z,13.77
2023-05-07T05:25:44.046Z,13.69
2023-05-07T05:26:46.022Z,13.63
2023-05-07T05:27:47.836Z,13.62
2023-05-07T05:28:49.758Z,13.58
2023-05-07T05:29:51.624Z,13.55
2023-05-07T05:30:53.566Z,13.57
2023-05-07T05:31:55.580Z,13.62
2023-05-07T05:32:57.642Z,13.64
2023-05-07T05:33:59.559Z,13.65
2023-05-07T05:35:01.569Z,13.69
2023-05-07T05:36:03.459Z,13.71
2023-05-07T05:37:05.290Z,13.69
2023-05-07T05:38:07.230Z,13.64
2023-05-07T05:39:10.203Z,13.59
2023-05-07T05:40:12.297Z,13.64
2023-05-07T05:41:14.600Z,13.56
2023-05-07T05:42:16.441Z,13.52
2023-05-07T05:43:18.356Z,13.56
2023-05-07T05:44:20.225Z,13.59
2023-05-07T05:45:22.076Z,13.60
2023-05-07T05:46:24.188Z,13.65
2023-05-07T05:47:26.179Z,13.66
2023-05-07T05:48:28.112Z,13.70
2023-05-07T05:49:30.028Z,13.72
2023-05-07T05:50:31.834Z,13.76
2023-05-07T05:51:33.668Z,13.83
2023-05-07T05:52:35.546Z,13.88
2023-05-07T05:53:37.292Z,13.93
2023-05-07T05:54:39.278Z,13.98
2023-05-07T05:55:41.179Z,14.02
2023-05-07T05:56:43.231Z,13.98
2023-05-07T05:57:45.064Z,13.97
2023-05-07T05:58:47.692Z,13.97
2023-05-07T05:59:49.707Z,13.94
2023-05-07T06:00:53.857Z,13.94
2023-05-07T06:01:55.821Z,13.98
2023-05-07T06:02:57.684Z,14.00
2023-05-07T06:03:59.492Z,14.03
2023-05-07T06:05:01.645Z,14.05
2023-05-07T06:06:03.554Z,14.05
2023-05-07T06:07:05.444Z,14.03
2023-05-07T06:08:07.370Z,13.91
2023-05-07T06:09:09.244Z,13.91
2023-05-07T06:10:11.538Z,13.90
2023-05-07T06:11:13.962Z,13.91
2023-05-07T06:12:15.737Z,13.95
2023-05-07T06:13:17.728Z,14.00
2023-05-07T06:14:19.631Z,14.04
2023-05-07T06:15:22.407Z,13.99
2023-05-07T06:16:25.714Z,13.97
2023-05-07T06:17:27.638Z,13.99
2023-05-07T06:18:29.469Z,13.99
2023-05-07T06:19:31.386Z,14.06
2023-05-07T06:20:33.268Z,14.13
2023-05-07T06:21:35.127Z,14.14
2023-05-07T06:22:36.954Z,14.13
2023-05-07T06:23:38.788Z,14.07
2023-05-07T06:24:40.650Z,13.95
2023-05-07T06:25:42.562Z,13.95
2023-05-07T06:26:44.376Z,13.95
2023-05-07T06:27:46.260Z,13.98
2023-05-07T06:28:48.186Z,14.01
2023-05-07T06:29:50.151Z,14.00
2023-05-07T06:30:52.193Z,14.04
2023-05-07T06:31:54.334Z,14.06
2023-05-07T06:32:56.264Z,14.06
2023-05-07T06:33:58.277Z,14.06
2023-05-07T06:35:00.119Z,14.13
2023-05-07T06:36:02.154Z,14.17
2023-05-07T06:37:04.292Z,14.19
2023-05-07T06:38:06.407Z,14.25
2023-05-07T06:39:08.469Z,14.28
2023-05-07T06:40:10.942Z,14.33
2023-05-07T06:41:13.108Z,14.37
2023-05-07T06:42:15.021Z,14.44
2023-05-07T06:43:16.870Z,14.48
2023-05-07T06:44:18.782Z,14.54
2023-05-07T06:45:21.394Z,14.56
2023-05-07T06:46:23.468Z,14.63
2023-05-07T06:47:25.376Z,14.70
2023-05-07T06:48:27.261Z,14.73
2023-05-07T06:49:29.204Z,14.73
2023-05-07T06:50:31.128Z,14.76
2023-05-07T06:51:33.155Z,14.79
2023-05-07T06:52:34.992Z,14.84
2023-05-07T06:53:36.866Z,14.87
2023-05-07T06:54:38.785Z,14.89
2023-05-07T06:55:40.586Z,14.91
2023-05-07T06:56:43.195Z,14.91
2023-05-07T06:57:44.996Z,14.91
2023-05-07T06:58:46.810Z,14.95
2023-05-07T06:59:48.801Z,14.98
2023-05-07T07:00:50.733Z,14.97
2023-05-07T07:01:52.722Z,14.97
2023-05-07T07:02:55.203Z,14.97
2023-05-07T07:03:57.080Z,14.96
2023-05-07T07:04:58.945Z,14.99
2023-05-07T07:06:00.941Z,15.00
2023-05-07T07:07:02.857Z,15.04
2023-05-07T07:08:04.833Z,15.07
2023-05-07T07:09:06.736Z,15.08
2023-05-07T07:10:09.002Z,15.03
2023-05-07T07:11:11.454Z,15.05
2023-05-07T07:12:13.366Z,15.08
2023-05-07T07:13:15.278Z,15.06
2023-05-07T07:14:17.290Z,15.07
2023-05-07T07:15:19.223Z,15.11
2023-05-07T07:16:21.842Z,15.12
2023-05-07T07:17:23.778Z,15.12
2023-05-07T07:18:25.853Z,15.14
2023-05-07T07:19:27.804Z,15.15
2023-05-07T07:20:29.700Z,15.22
2023-05-07T07:21:31.967Z,15.26
2023-05-07T07:22:35.871Z,15.28
2023-05-07T07:23:37.783Z,15.31
2023-05-07T07:24:39.576Z,15.34
2023-05-07T07:25:41.904Z,15.40
2023-05-07T07:26:44.013Z,15.46
2023-05-07T07:27:46.064Z,15.47
2023-05-07T07:28:48.119Z,15.50
2023-05-07T07:29:50.059Z,15.55
2023-05-07T07:30:51.887Z,15.60
2023-05-07T07:31:53.736Z,15.63
2023-05-07T07:32:57.495Z,15.68
2023-05-07T07:33:59.386Z,15.74
2023-05-07T07:35:01.449Z,15.77
2023-05-07T07:36:03.486Z,15.81
2023-05-07T07:37:07.400Z,15.85
2023-05-07T07:38:09.303Z,15.89
2023-05-07T07:39:11.221Z,15.92
2023-05-07T07:40:13.527Z,15.85
2023-05-07T07:41:15.650Z,15.73
2023-05-07T07:42:17.606Z,15.70
2023-05-07T07:43:19.502Z,15.65
2023-05-07T07:44:21.872Z,15.62
2023-05-07T07:45:23.721Z,15.59
2023-05-07T07:46:25.648Z,15.63
2023-05-07T07:47:27.533Z,15.69
2023-05-07T07:48:29.449Z,15.75
2023-05-07T07:49:31.406Z,15.80
2023-05-07T07:50:43.555Z,15.92
2023-05-07T07:51:47.319Z,15.94
2023-05-07T07:52:49.885Z,15.98
2023-05-07T07:53:51.767Z,16.04
2023-05-07T07:54:53.739Z,16.06
2023-05-07T07:55:59.407Z,16.08
2023-05-07T07:57:02.814Z,16.13
2023-05-07T07:58:04.583Z,16.20
2023-05-07T07:59:06.478Z,16.26
2023-05-07T08:00:08.880Z,16.31
2023-05-07T08:01:11.230Z,16.34
2023-05-07T08:02:13.119Z,16.38
2023-05-07T08:03:15.784Z,16.38
2023-05-07T08:04:17.719Z,16.42
2023-05-07T08:05:19.688Z,16.48
2023-05-07T08:06:21.592Z,16.55
2023-05-07T08:07:24.253Z,16.59
2023-05-07T08:08:26.102Z,16.67
2023-05-07T08:09:28.033Z,16.69
2023-05-07T08:10:29.896Z,16.68
2023-05-07T08:11:31.847Z,16.74
2023-05-07T08:12:33.863Z,16.79
2023-05-07T08:13:35.916Z,16.83
2023-05-07T08:14:38.347Z,16.84
2023-05-07T08:15:40.253Z,16.80
2023-05-07T08:16:42.249Z,16.81
2023-05-07T08:17:44.524Z,16.83
2023-05-07T08:18:46.405Z,16.83
2023-05-07T08:19:48.331Z,16.84
2023-05-07T08:20:50.243Z,16.80
2023-05-07T08:21:52.180Z,16.82
2023-05-07T08:22:54.158Z,16.89
2023-05-07T08:23:56.062Z,16.98
2023-05-07T08:24:57.885Z,17.05
2023-05-07T08:26:00.188Z,17.15
2023-05-07T08:27:02.101Z,17.17
2023-05-07T08:28:04.753Z,17.21
2023-05-07T08:29:06.819Z,17.28
2023-05-07T08:30:09.148Z,17.34
2023-05-07T08:31:11.438Z,17.34
2023-05-07T08:32:13.354Z,17.38
2023-05-07T08:33:15.230Z,17.43
2023-05-07T08:34:17.186Z,17.54
2023-05-07T08:35:19.030Z,17.55
2023-05-07T08:36:20.948Z,17.58
2023-05-07T08:37:22.918Z,17.68
2023-05-07T08:38:24.775Z,17.75
2023-05-07T08:39:26.561Z,17.76
2023-05-07T08:40:28.922Z,17.79
2023-05-07T08:41:30.923Z,17.79
2023-05-07T08:42:33.560Z,17.87
2023-05-07T08:43:37.858Z,17.94
2023-05-07T08:44:41.175Z,17.98
2023-05-07T08:45:43.113Z,18.08
2023-05-07T08:46:48.480Z,18.10
2023-05-07T08:47:56.022Z,18.13
2023-05-07T08:48:57.893Z,18.14
2023-05-07T08:49:59.805Z,18.17
2023-05-07T08:51:02.145Z,18.19
2023-05-07T08:52:04.117Z,18.23
2023-05-07T08:53:06.677Z,18.26
2023-05-07T08:54:08.820Z,18.33
2023-05-07T08:55:11.448Z,18.41
2023-05-07T08:56:13.487Z,18.46
2023-05-07T08:57:15.345Z,18.53
2023-05-07T08:58:17.253Z,18.63
2023-05-07T08:59:19.030Z,18.66
2023-05-07T09:00:21.115Z,18.69
2023-05-07T09:01:23.268Z,18.71
2023-05-07T09:02:25.217Z,18.72
2023-05-07T09:03:27.280Z,18.72
2023-05-07T09:04:29.278Z,18.73
2023-05-07T09:05:31.268Z,18.76
2023-05-07T09:06:33.079Z,18.81
2023-05-07T09:07:35.175Z,18.81
2023-05-07T09:08:37.307Z,18.86
2023-05-07T09:09:39.137Z,18.95
2023-05-07T09:10:41.064Z,18.99
2023-05-07T09:11:42.929Z,19.09
2023-05-07T09:12:44.852Z,19.18
2023-05-07T09:13:46.900Z,19.29
2023-05-07T09:14:48.778Z,19.34
2023-05-07T09:15:50.695Z,19.43
2023-05-07T09:16:55.417Z,19.51
2023-05-07T09:18:02.219Z,19.57
2023-05-07T09:19:04.441Z,19.69
2023-05-07T09:20:09.286Z,19.74
2023-05-07T09:21:12.738Z,19.75
2023-05-07T09:22:14.683Z,19.78
2023-05-07T09:23:16.718Z,19.84
2023-05-07T09:24:18.615Z,19.92
2023-05-07T09:25:29.078Z,19.96
2023-05-07T09:26:30.924Z,19.99
2023-05-07T09:27:32.775Z,20.03
2023-05-07T09:28:34.659Z,20.08
2023-05-07T09:29:36.799Z,20.11
2023-05-07T09:30:38.784Z,20.17
2023-05-07T09:31:41.039Z,20.20
2023-05-07T09:32:42.976Z,20.25
2023-05-07T09:33:44.866Z,20.31
2023-05-07T09:34:48.720Z,20.38
2023-05-07T09:35:53.316Z,20.42
2023-05-07T09:36:55.176Z,20.47
2023-05-07T09:37:58.080Z,20.53
2023-05-07T09:39:02.770Z,20.58
2023-05-07T09:40:04.858Z,20.63
2023-05-07T09:41:08.465Z,20.70
2023-05-07T09:42:10.600Z,20.73
2023-05-07T09:43:13.102Z,20.77
2023-05-07T09:44:15.581Z,20.82
2023-05-07T09:45:18.094Z,20.86
2023-05-07T09:46:21.614Z,20.90
2023-05-07T09:47:25.790Z,20.92
2023-05-07T09:48:28.747Z,20.98
2023-05-07T09:49:31.580Z,21.03
2023-05-07T09:50:45.290Z,21.08
2023-05-07T09:51:49.459Z,21.14
2023-05-07T09:52:51.310Z,21.25
2023-05-07T09:53:54.078Z,21.32
2023-05-07T09:54:57.182Z,21.40
2023-05-07T09:55:59.981Z,21.49
2023-05-07T09:57:04.322Z,21.60
2023-05-07T09:58:07.204Z,21.75
2023-05-07T09:59:09.682Z,21.86
2023-05-07T10:00:12.125Z,21.98
2023-05-07T10:01:14.664Z,22.00
2023-05-07T10:02:17.146Z,22.01
2023-05-07T10:03:21.069Z,22.14
2023-05-07T10:04:23.180Z,22.24
2023-05-07T10:05:25.716Z,22.27
2023-05-07T10:06:27.928Z,22.25
2023-05-07T10:07:30.557Z,22.25
2023-05-07T10:08:32.836Z,22.16
2023-05-07T10:09:36.704Z,22.11
2023-05-07T10:10:39.179Z,22.02
2023-05-07T10:11:41.851Z,22.12
2023-05-07T10:12:43.809Z,22.25
2023-05-07T10:13:47.685Z,22.32
2023-05-07T10:14:50.124Z,22.34
2023-05-07T10:15:52.362Z,22.33
2023-05-07T10:16:55.074Z,22.36
2023-05-07T10:17:57.264Z,22.40
2023-05-07T10:19:00.090Z,22.43
2023-05-07T10:20:04.323Z,22.52
2023-05-07T10:21:12.620Z,22.61
2023-05-07T10:22:15.230Z,22.60
2023-05-07T10:23:20.603Z,22.56
2023-05-07T10:24:32.849Z,22.50
2023-05-07T10:25:34.754Z,22.63
2023-05-07T10:26:37.048Z,22.72
2023-05-07T10:27:39.315Z,22.76
2023-05-07T10:28:42.428Z,22.75
2023-05-07T10:30:03.012Z,22.81
2023-05-07T10:31:20.183Z,22.75
2023-05-07T10:32:42.493Z,22.64
2023-05-07T10:33:46.956Z,22.79
2023-05-07T10:34:50.085Z,22.92
2023-05-07T10:35:52.124Z,23.09
2023-05-07T10:36:54.642Z,23.11
2023-05-07T10:37:56.654Z,23.12
2023-05-07T10:38:58.512Z,23.09
2023-05-07T10:40:00.453Z,23.08
2023-05-07T10:41:02.935Z,23.10
2023-05-07T10:42:11.803Z,23.24
2023-05-07T10:43:13.677Z,23.43
2023-05-07T10:44:41.655Z,23.58
2023-05-07T10:45:43.630Z,23.64
2023-05-07T10:47:05.645Z,23.80
2023-05-07T10:48:20.882Z,24.00
2023-05-07T10:49:29.267Z,24.12
2023-05-07T10:50:31.264Z,24.29
2023-05-07T10:51:34.380Z,24.34
2023-05-07T10:52:36.469Z,24.47
2023-05-07T10:53:38.309Z,24.57
2023-05-07T10:54:40.312Z,24.69
2023-05-07T10:55:42.230Z,24.73
2023-05-07T10:56:44.485Z,24.85
2023-05-07T10:57:46.290Z,24.95
2023-05-07T10:58:48.090Z,25.05
2023-05-07T10:59:50.525Z,25.18
2023-05-07T11:00:53.789Z,25.02
2023-05-07T11:01:57.342Z,24.99
2023-05-07T11:03:02.387Z,25.10
2023-05-07T11:04:17.032Z,25.06
2023-05-07T11:05:22.801Z,25.11
2023-05-07T11:06:24.922Z,25.11
2023-05-07T11:07:28.073Z,25.20
2023-05-07T11:08:49.863Z,25.19
2023-05-07T11:09:54.808Z,25.28
2023-05-07T11:10:58.625Z,24.63
2023-05-07T11:12:00.521Z,24.47
2023-05-07T11:13:02.526Z,24.36
2023-05-07T11:14:04.447Z,24.30
2023-05-07T11:15:13.219Z,24.16
2023-05-07T11:16:34.909Z,23.95
2023-05-07T11:17:54.057Z,24.14
2023-05-07T11:18:56.852Z,24.10
2023-05-07T11:19:59.282Z,24.01
2023-05-07T11:21:01.218Z,24.00
2023-05-07T11:22:03.198Z,23.96
2023-05-07T11:23:05.037Z,23.88
2023-05-07T11:24:08.082Z,23.92
2023-05-07T11:25:10.124Z,24.20
2023-05-07T11:26:15.799Z,24.42
2023-05-07T11:27:24.387Z,24.31
2023-05-07T11:28:27.027Z,24.22
2023-05-07T11:29:30.353Z,24.16
2023-05-07T11:30:32.708Z,24.06
2023-05-07T11:31:34.740Z,24.13
2023-05-07T11:32:36.835Z,24.29
2023-05-07T11:33:39.002Z,24.48
2023-05-07T11:34:41.053Z,24.63
2023-05-07T11:35:43.681Z,24.92
2023-05-07T11:36:46.608Z,25.22
2023-05-07T11:37:49.362Z,25.46
2023-05-07T11:38:51.258Z,25.65
2023-05-07T11:40:03.431Z,25.72
2023-05-07T11:41:06.655Z,25.75
2023-05-07T11:42:09.367Z,25.83
2023-05-07T11:43:14.219Z,25.85
2023-05-07T11:44:16.069Z,25.98
2023-05-07T11:45:25.354Z,26.00
2023-05-07T11:46:28.492Z,25.86
2023-05-07T11:47:34.051Z,25.59
2023-05-07T11:48:36.120Z,25.24
2023-05-07T11:49:38.123Z,25.30
2023-05-07T11:51:00.211Z,25.39
2023-05-07T11:52:02.149Z,25.12
2023-05-07T11:53:09.780Z,25.06
2023-05-07T11:54:12.693Z,24.91
2023-05-07T11:55:14.662Z,25.09
2023-05-07T11:56:17.835Z,25.33
2023-05-07T11:57:19.897Z,25.41
2023-05-07T11:58:23.157Z,25.26
2023-05-07T11:59:24.979Z,25.15
2023-05-07T12:00:26.827Z,25.12
2023-05-07T12:01:28.712Z,25.20
2023-05-07T12:02:31.157Z,25.31
2023-05-07T12:03:36.247Z,25.45
2023-05-07T12:04:39.833Z,25.50
2023-05-07T12:05:43.118Z,25.58
2023-05-07T12:06:44.919Z,25.81
2023-05-07T12:07:46.795Z,26.02
2023-05-07T12:08:48.755Z,26.03
2023-05-07T12:09:51.575Z,25.98
2023-05-07T12:10:53.768Z,26.08
2023-05-07T12:11:57.498Z,26.24
2023-05-07T12:12:59.463Z,26.19
2023-05-07T12:14:01.290Z,26.21
2023-05-07T12:15:03.119Z,26.27
2023-05-07T12:16:05.779Z,26.43
2023-05-07T12:17:09.133Z,26.43
2023-05-07T12:18:11.783Z,26.64
2023-05-07T12:19:15.737Z,26.51
2023-05-07T12:20:18.371Z,26.39
2023-05-07T12:21:20.767Z,26.47
2023-05-07T12:22:22.655Z,26.66
2023-05-07T12:23:24.894Z,26.75
2023-05-07T12:24:27.356Z,26.70
2023-05-07T12:25:47.978Z,26.83
2023-05-07T12:26:50.176Z,26.73
2023-05-07T12:27:55.085Z,26.65
2023-05-07T12:28:58.770Z,26.72
2023-05-07T12:30:00.685Z,26.69
2023-05-07T12:31:02.865Z,26.67
2023-05-07T12:32:07.046Z,26.81
2023-05-07T12:33:09.221Z,26.93
2023-05-07T12:34:13.955Z,26.73
2023-05-07T12:35:16.005Z,26.73
2023-05-07T12:36:17.897Z,26.84
2023-05-07T12:37:24.428Z,26.93
2023-05-07T12:38:26.358Z,27.04
2023-05-07T12:39:28.239Z,27.17
2023-05-07T12:40:40.028Z,27.23
2023-05-07T12:41:57.089Z,27.27
2023-05-07T12:43:00.867Z,27.26
2023-05-07T12:44:05.421Z,27.27
2023-05-07T12:45:11.778Z,27.41
2023-05-07T12:46:15.809Z,27.36
2023-05-07T12:47:17.774Z,27.41
2023-05-07T12:48:21.169Z,27.45
2023-05-07T12:49:25.454Z,27.49
2023-05-07T12:50:27.494Z,27.68
2023-05-07T12:51:29.608Z,27.71
2023-05-07T12:52:32.958Z,27.57
2023-05-07T12:53:35.147Z,27.68
2023-05-07T12:54:39.175Z,27.85
2023-05-07T12:55:43.912Z,27.92
2023-05-07T12:56:45.845Z,27.94
2023-05-07T12:57:49.685Z,27.99
2023-05-07T12:58:51.651Z,27.98
2023-05-07T12:59:58.932Z,27.81
2023-05-07T13:01:02.086Z,27.80
2023-05-07T13:02:04.506Z,27.66
2023-05-07T13:03:06.711Z,27.62
2023-05-07T13:04:08.778Z,27.71
2023-05-07T13:05:10.962Z,27.84
2023-05-07T13:06:14.136Z,27.93
2023-05-07T13:07:16.085Z,28.07
2023-05-07T13:08:28.046Z,28.10
2023-05-07T13:09:30.630Z,27.88
2023-05-07T13:10:32.550Z,27.76
2023-05-07T13:11:34.469Z,27.37
2023-05-07T13:12:36.317Z,27.17
2023-05-07T13:13:40.011Z,26.91
2023-05-07T13:14:41.890Z,26.73
2023-05-07T13:15:43.733Z,26.90
2023-05-07T13:16:45.554Z,27.11
2023-05-07T13:17:47.810Z,27.25
2023-05-07T13:18:49.884Z,27.41
2023-05-07T13:19:51.902Z,27.52
2023-05-07T13:20:54.420Z,27.64
2023-05-07T13:21:56.331Z,27.79
2023-05-07T13:22:58.204Z,27.78
2023-05-07T13:24:00.197Z,27.76
2023-05-07T13:25:02.048Z,27.73
2023-05-07T13:26:08.559Z,27.73
2023-05-07T13:27:16.791Z,27.52
2023-05-07T13:28:18.666Z,27.41